Charlevoix, MI (49711)

5:46 AM EDT on August 28, 2015 (GMT -0400)
1.5 W Ironton | | Change Station
CLOSE
Current Station
Personal Weather Station
Location: Charlevoix, MI
Elevation: 750 ft
Nearby Weather Stations

Elev 750 ft 45.26 °N, 85.22 °W | Updated 3 seconds ago

Clear
Clear
55.4 °F
Feels Like 55.4 °F
N
2.0
Wind Variable Wind from SSE
Gusts 4.0 mph

Today
High -- | Low -- °F
--% Chance of Precip.
Yesterday
High -- | Low -- °F
Precip. -- in
6:57 AM 8:26 PM
Waxing Gibbous, 97% visible
Pressure 30.14 in
Visibility 10.0 miles
Clouds Clear
Dew Point 52 °F
Humidity 89%
Rainfall 0.00 in
Snow Depth Not available.
UV 0 out of 12
Pollen 9.50 out of 12
Air Quality Not available.
Flu Activity Not available.
METAR KCVX 280934Z AUTO 19006KT 10SM CLR 15/14 A3014 RMK AO2 T01480143
Pressure 30.14 in
Visibility 10.0 miles
Clouds Clear
Dew Point 52 °F
Humidity 89%
Rainfall 0.00 in
Snow Depth Not available.
UV 0 out of 12
Pollen 9.50 out of 12
Air Quality Not available.
Flu Activity Not available.
METAR KCVX 280934Z AUTO 19006KT 10SM CLR 15/14 A3014 RMK AO2 T01480143
Nowcast | as of 5:00 am EDT on August 28, 2015

At 6 am...mostly clear. Patchy fog. Temperature 58. South winds 11 mph. At 8 am...mostly clear. Temperature 59. South winds 11 mph. At 10 am...partly cloudy. Temperature 65. Southwest winds 14 mph. At 12 PM...partly cloudy. Temperature 70. Southwest winds 15 mph.

×

10-Day Weather Forecast

×

Almanac

Astronomy

Aug. 28, 2015 Rise Set
Actual Time
Civil Twilight
Nautical Twilight
Astronomical Twilight
Moon
Length of Visible Light
Length of Day
Tomorrow will be .
, % of the Moon is Illuminated

Today's Extremes

State Highs State Lows

Community

WunderPhotos

Upload Photos

1,850,352 photos uploaded!

WunderBlogs® & News

Nearby

Air Quality

  Air Quality AQ Index Pollutant
Not available.

Snow Depth

Station Depth Elevation

Earthquake Activity

City Distance Mag. Time & Date
Minimum magnitude displayed is 2.5.

Coastal Water Temperatures

Place Temperature

Stations

Nearby Weather Stations

Station Location Temp. Windchill Dew Point Humidity Wind Precip. Elev Updated Type